sensor_id;sensor_type;location;lat;lon;timestamp;pressure;altitude;pressure_sealevel;temperature;humidity
2675;BME280;1347;42.122;24.746;2023-05-25T00:01:23;99456.31;;;17.47;87.30
2675;BME280;1347;42.122;24.746;2023-05-25T00:03:50;99454.34;;;17.48;87.14
2675;BME280;1347;42.122;24.746;2023-05-25T00:06:19;99453.13;;;17.49;87.09
2675;BME280;1347;42.122;24.746;2023-05-25T00:08:46;99443.53;;;17.26;88.13
2675;BME280;1347;42.122;24.746;2023-05-25T00:11:14;99449.25;;;17.12;88.78
2675;BME280;1347;42.122;24.746;2023-05-25T00:13:43;99450.59;;;17.01;89.57
2675;BME280;1347;42.122;24.746;2023-05-25T00:16:10;99440.34;;;16.98;90.33
2675;BME280;1347;42.122;24.746;2023-05-25T00:18:38;99445.03;;;17.01;90.07
2675;BME280;1347;42.122;24.746;2023-05-25T00:21:05;99444.13;;;17.11;89.62
2675;BME280;1347;42.122;24.746;2023-05-25T00:23:32;99448.81;;;17.17;89.90
2675;BME280;1347;42.122;24.746;2023-05-25T00:26:01;99447.63;;;17.18;90.29
2675;BME280;1347;42.122;24.746;2023-05-25T00:28:28;99443.72;;;17.12;90.30
2675;BME280;1347;42.122;24.746;2023-05-25T00:30:55;99448.13;;;17.10;90.68
2675;BME280;1347;42.122;24.746;2023-05-25T00:33:21;99442.25;;;17.04;91.19
2675;BME280;1347;42.122;24.746;2023-05-25T00:35:50;99448.19;;;17.03;91.55
2675;BME280;1347;42.122;24.746;2023-05-25T00:38:18;99443.84;;;17.02;92.34
2675;BME280;1347;42.122;24.746;2023-05-25T00:40:46;99443.53;;;16.96;92.54
2675;BME280;1347;42.122;24.746;2023-05-25T00:43:12;99444.38;;;16.55;94.43
2675;BME280;1347;42.122;24.746;2023-05-25T00:45:39;99437.44;;;16.37;95.62
2675;BME280;1347;42.122;24.746;2023-05-25T00:48:07;99435.56;;;16.27;96.91
2675;BME280;1347;42.122;24.746;2023-05-25T00:50:38;99440.31;;;16.26;96.73
2675;BME280;1347;42.122;24.746;2023-05-25T00:53:09;99442.66;;;16.28;97.30
2675;BME280;1347;42.122;24.746;2023-05-25T00:55:39;99441.09;;;16.27;97.01
2675;BME280;1347;42.122;24.746;2023-05-25T00:58:07;99440.03;;;16.13;98.30
2675;BME280;1347;42.122;24.746;2023-05-25T01:00:36;99441.56;;;16.18;97.86
2675;BME280;1347;42.122;24.746;2023-05-25T01:03:11;99442.34;;;16.18;97.96
2675;BME280;1347;42.122;24.746;2023-05-25T01:05:44;99438.91;;;16.04;98.64
2675;BME280;1347;42.122;24.746;2023-05-25T01:08:16;99434.91;;;15.60;100.00
2675;BME280;1347;42.122;24.746;2023-05-25T01:10:44;99436.88;;;15.60;100.00
2675;BME280;1347;42.122;24.746;2023-05-25T01:13:16;99429.22;;;15.81;100.00
2675;BME280;1347;42.122;24.746;2023-05-25T01:15:44;99436.00;;;15.73;100.00
2675;BME280;1347;42.122;24.746;2023-05-25T01:18:13;99435.56;;;15.78;100.00
2675;BME280;1347;42.122;24.746;2023-05-25T01:20:51;99435.53;;;15.86;99.70
2675;BME280;1347;42.122;24.746;2023-05-25T01:23:25;99428.81;;;15.83;100.00
2675;BME280;1347;42.122;24.746;2023-05-25T01:25:58;99420.94;;;15.78;100.00
2675;BME280;1347;42.122;24.746;2023-05-25T01:28:30;99420.94;;;15.81;100.00
2675;BME280;1347;42.122;24.746;2023-05-25T01:31:01;99425.28;;;15.82;100.00
2675;BME280;1347;42.122;24.746;2023-05-25T01:33:29;99426.84;;;15.83;100.00
2675;BME280;1347;42.122;24.746;2023-05-25T01:35:59;99428.38;;;15.88;100.00
2675;BME280;1347;42.122;24.746;2023-05-25T01:38:26;99430.31;;;15.95;100.00
2675;BME280;1347;42.122;24.746;2023-05-25T01:40:53;99417.28;;;15.92;100.00
2675;BME280;1347;42.122;24.746;2023-05-25T01:43:21;99427.56;;;15.91;100.00
2675;BME280;1347;42.122;24.746;2023-05-25T01:45:48;99418.88;;;15.93;100.00
2675;BME280;1347;42.122;24.746;2023-05-25T01:48:22;99419.25;;;15.95;100.00
2675;BME280;1347;42.122;24.746;2023-05-25T01:50:54;99422.72;;;16.02;100.00
2675;BME280;1347;42.122;24.746;2023-05-25T01:53:28;99412.78;;;16.08;100.00
2675;BME280;1347;42.122;24.746;2023-05-25T01:55:58;99418.38;;;16.05;100.00
2675;BME280;1347;42.122;24.746;2023-05-25T01:58:27;99427.78;;;16.14;100.00
2675;BME280;1347;42.122;24.746;2023-05-25T02:00:57;99421.84;;;16.16;100.00
2675;BME280;1347;42.122;24.746;2023-05-25T02:03:24;99436.00;;;16.22;100.00
2675;BME280;1347;42.122;24.746;2023-05-25T02:05:52;99431.66;;;16.20;100.00
2675;BME280;1347;42.122;24.746;2023-05-25T02:08:22;99440.41;;;16.15;100.00
2675;BME280;1347;42.122;24.746;2023-05-25T02:10:50;99442.03;;;16.09;100.00
2675;BME280;1347;42.122;24.746;2023-05-25T02:13:17;99436.47;;;16.13;100.00
2675;BME280;1347;42.122;24.746;2023-05-25T02:15:44;99443.19;;;16.12;100.00
2675;BME280;1347;42.122;24.746;2023-05-25T02:18:11;99447.94;;;16.11;100.00
2675;BME280;1347;42.122;24.746;2023-05-25T02:20:38;99442.41;;;16.11;100.00
2675;BME280;1347;42.122;24.746;2023-05-25T02:23:05;99438.13;;;16.07;100.00
2675;BME280;1347;42.122;24.746;2023-05-25T02:25:32;99440.19;;;15.96;100.00
2675;BME280;1347;42.122;24.746;2023-05-25T02:28:00;99440.91;;;16.00;100.00
2675;BME280;1347;42.122;24.746;2023-05-25T02:30:27;99447.22;;;16.04;100.00
2675;BME280;1347;42.122;24.746;2023-05-25T02:32:54;99445.25;;;16.04;100.00
2675;BME280;1347;42.122;24.746;2023-05-25T02:35:21;99447.22;;;16.04;100.00
2675;BME280;1347;42.122;24.746;2023-05-25T02:37:48;99443.66;;;16.03;100.00
2675;BME280;1347;42.122;24.746;2023-05-25T02:40:15;99444.06;;;16.02;100.00
2675;BME280;1347;42.122;24.746;2023-05-25T02:42:42;99441.69;;;16.00;100.00
2675;BME280;1347;42.122;24.746;2023-05-25T02:45:11;99447.63;;;15.99;100.00
2675;BME280;1347;42.122;24.746;2023-05-25T02:47:38;99437.38;;;15.99;100.00
2675;BME280;1347;42.122;24.746;2023-05-25T02:50:05;99442.56;;;15.90;100.00
2675;BME280;1347;42.122;24.746;2023-05-25T02:52:32;99444.56;;;15.90;100.00
2675;BME280;1347;42.122;24.746;2023-05-25T02:55:02;99445.38;;;15.87;100.00
2675;BME280;1347;42.122;24.746;2023-05-25T02:57:30;99449.69;;;15.91;100.00
2675;BME280;1347;42.122;24.746;2023-05-25T02:59:57;99448.50;;;15.89;100.00
2675;BME280;1347;42.122;24.746;2023-05-25T03:02:25;99454.03;;;15.92;100.00
2675;BME280;1347;42.122;24.746;2023-05-25T03:04:53;99454.03;;;15.92;100.00
2675;BME280;1347;42.122;24.746;2023-05-25T03:07:20;99456.78;;;15.92;100.00
2675;BME280;1347;42.122;24.746;2023-05-25T03:09:47;99465.06;;;15.92;100.00
2675;BME280;1347;42.122;24.746;2023-05-25T03:12:13;99469.81;;;15.92;100.00
2675;BME280;1347;42.122;24.746;2023-05-25T03:14:40;99471.38;;;15.96;100.00
2675;BME280;1347;42.122;24.746;2023-05-25T03:17:07;99469.81;;;15.95;100.00
2675;BME280;1347;42.122;24.746;2023-05-25T03:19:35;99471.72;;;15.98;100.00
2675;BME280;1347;42.122;24.746;2023-05-25T03:22:03;99475.72;;;15.97;100.00
2675;BME280;1347;42.122;24.746;2023-05-25T03:24:30;99474.16;;;15.96;100.00
2675;BME280;1347;42.122;24.746;2023-05-25T03:26:56;99477.22;;;16.05;100.00
2675;BME280;1347;42.122;24.746;2023-05-25T03:29:23;99480.78;;;16.06;100.00
2675;BME280;1347;42.122;24.746;2023-05-25T03:31:51;99480.78;;;16.06;100.00
2675;BME280;1347;42.122;24.746;2023-05-25T03:34:18;99477.63;;;16.04;99.63
2675;BME280;1347;42.122;24.746;2023-05-25T03:36:46;99481.19;;;16.04;99.92
2675;BME280;1347;42.122;24.746;2023-05-25T03:39:13;99478.00;;;16.06;99.41
2675;BME280;1347;42.122;24.746;2023-05-25T03:41:40;99468.88;;;16.12;99.12
2675;BME280;1347;42.122;24.746;2023-05-25T03:44:08;99475.16;;;16.16;99.59
2675;BME280;1347;42.122;24.746;2023-05-25T03:46:35;99470.00;;;16.18;99.47
2675;BME280;1347;42.122;24.746;2023-05-25T03:49:02;99471.16;;;16.21;98.67
2675;BME280;1347;42.122;24.746;2023-05-25T03:51:30;99472.75;;;16.18;98.91
2675;BME280;1347;42.122;24.746;2023-05-25T03:53:58;99479.50;;;16.17;98.56
2675;BME280;1347;42.122;24.746;2023-05-25T03:56:25;99475.13;;;16.20;98.63
2675;BME280;1347;42.122;24.746;2023-05-25T03:58:51;99480.69;;;16.16;99.04
2675;BME280;1347;42.122;24.746;2023-05-25T04:01:19;99476.81;;;16.07;98.62
2675;BME280;1347;42.122;24.746;2023-05-25T04:03:46;99473.91;;;15.73;100.00
2675;BME280;1347;42.122;24.746;2023-05-25T04:06:13;99482.19;;;15.73;100.00
2675;BME280;1347;42.122;24.746;2023-05-25T04:08:43;99482.28;;;15.59;100.00
2675;BME280;1347;42.122;24.746;2023-05-25T04:11:12;99482.66;;;15.61;100.00
2675;BME280;1347;42.122;24.746;2023-05-25T04:13:39;99474.78;;;15.59;100.00
2675;BME280;1347;42.122;24.746;2023-05-25T04:16:06;99486.53;;;15.70;100.00
2675;BME280;1347;42.122;24.746;2023-05-25T04:18:33;99476.31;;;15.67;100.00
2675;BME280;1347;42.122;24.746;2023-05-25T04:20:59;99479.75;;;15.86;100.00
2675;BME280;1347;42.122;24.746;2023-05-25T04:23:26;99485.16;;;16.00;100.00
2675;BME280;1347;42.122;24.746;2023-05-25T04:25:53;99480.72;;;16.09;100.00
2675;BME280;1347;42.122;24.746;2023-05-25T04:28:22;99490.44;;;16.32;99.95
2675;BME280;1347;42.122;24.746;2023-05-25T04:30:48;99489.53;;;16.45;99.20
2675;BME280;1347;42.122;24.746;2023-05-25T04:33:16;99483.84;;;16.63;97.13
2675;BME280;1347;42.122;24.746;2023-05-25T04:35:43;99500.00;;;16.68;95.47
2675;BME280;1347;42.122;24.746;2023-05-25T04:38:11;99495.09;;;16.83;94.47
2675;BME280;1347;42.122;24.746;2023-05-25T04:40:41;99498.25;;;16.85;93.76
2675;BME280;1347;42.122;24.746;2023-05-25T04:43:10;99500.13;;;16.95;93.71
2675;BME280;1347;42.122;24.746;2023-05-25T04:45:39;99494.41;;;17.09;93.14
2675;BME280;1347;42.122;24.746;2023-05-25T04:48:07;99496.59;;;17.25;93.43
2675;BME280;1347;42.122;24.746;2023-05-25T04:50:34;99493.28;;;17.37;92.28
2675;BME280;1347;42.122;24.746;2023-05-25T04:53:01;99500.97;;;17.53;90.78
2675;BME280;1347;42.122;24.746;2023-05-25T04:55:28;99501.22;;;17.65;90.07
2675;BME280;1347;42.122;24.746;2023-05-25T04:57:55;99501.09;;;17.76;89.73
2675;BME280;1347;42.122;24.746;2023-05-25T05:00:23;99499.22;;;17.70;88.52
2675;BME280;1347;42.122;24.746;2023-05-25T05:02:53;99501.38;;;17.82;89.21
2675;BME280;1347;42.122;24.746;2023-05-25T05:05:20;99501.47;;;18.01;88.92
2675;BME280;1347;42.122;24.746;2023-05-25T05:07:47;99491.19;;;18.25;88.37
2675;BME280;1347;42.122;24.746;2023-05-25T05:10:14;99495.78;;;18.35;86.45
2675;BME280;1347;42.122;24.746;2023-05-25T05:12:42;99496.03;;;18.45;86.13
2675;BME280;1347;42.122;24.746;2023-05-25T05:15:09;99496.22;;;18.57;85.44
2675;BME280;1347;42.122;24.746;2023-05-25T05:17:36;99491.13;;;18.75;85.36
2675;BME280;1347;42.122;24.746;2023-05-25T05:20:06;99498.69;;;18.75;84.38
2675;BME280;1347;42.122;24.746;2023-05-25T05:22:35;99499.69;;;18.85;83.66
2675;BME280;1347;42.122;24.746;2023-05-25T05:25:03;99497.56;;;18.92;83.67
2675;BME280;1347;42.122;24.746;2023-05-25T05:27:30;99499.47;;;18.95;83.97
2675;BME280;1347;42.122;24.746;2023-05-25T05:29:57;99502.97;;;18.99;83.16
2675;BME280;1347;42.122;24.746;2023-05-25T05:32:24;99496.06;;;19.07;82.27
2675;BME280;1347;42.122;24.746;2023-05-25T05:34:51;99503.69;;;19.03;82.69
2675;BME280;1347;42.122;24.746;2023-05-25T05:37:19;99501.34;;;19.02;82.16
2675;BME280;1347;42.122;24.746;2023-05-25T05:39:46;99503.78;;;19.20;82.34
2675;BME280;1347;42.122;24.746;2023-05-25T05:42:13;99497.78;;;19.41;82.64
2675;BME280;1347;42.122;24.746;2023-05-25T05:44:43;99503.94;;;19.68;81.62
2675;BME280;1347;42.122;24.746;2023-05-25T05:47:13;99498.88;;;19.99;81.08
2675;BME280;1347;42.122;24.746;2023-05-25T05:49:40;99504.59;;;20.08;79.98
2675;BME280;1347;42.122;24.746;2023-05-25T05:52:07;99507.06;;;20.23;79.74
2675;BME280;1347;42.122;24.746;2023-05-25T05:54:36;99507.13;;;20.19;79.62
2675;BME280;1347;42.122;24.746;2023-05-25T05:57:03;99514.44;;;20.29;79.87
2675;BME280;1347;42.122;24.746;2023-05-25T05:59:30;99511.50;;;20.52;78.72
2675;BME280;1347;42.122;24.746;2023-05-25T06:01:58;99512.31;;;20.82;77.90
2675;BME280;1347;42.122;24.746;2023-05-25T06:04:25;99518.34;;;21.09;77.16
2675;BME280;1347;42.122;24.746;2023-05-25T06:06:53;99507.09;;;21.42;76.54
2675;BME280;1347;42.122;24.746;2023-05-25T06:09:20;99505.78;;;21.46;75.28
2675;BME280;1347;42.122;24.746;2023-05-25T06:11:48;99512.25;;;21.68;73.82
2675;BME280;1347;42.122;24.746;2023-05-25T06:14:15;99512.00;;;21.50;73.86
2675;BME280;1347;42.122;24.746;2023-05-25T06:16:42;99512.81;;;21.63;74.85
2675;BME280;1347;42.122;24.746;2023-05-25T06:19:09;99503.25;;;21.77;72.97
2675;BME280;1347;42.122;24.746;2023-05-25T06:21:36;99517.75;;;21.97;72.83
2675;BME280;1347;42.122;24.746;2023-05-25T06:24:04;99519.56;;;22.17;72.51
2675;BME280;1347;42.122;24.746;2023-05-25T06:26:31;99518.03;;;22.50;71.66
2675;BME280;1347;42.122;24.746;2023-05-25T06:28:59;99526.72;;;22.78;70.07
2675;BME280;1347;42.122;24.746;2023-05-25T06:31:26;99533.03;;;22.91;68.64
2675;BME280;1347;42.122;24.746;2023-05-25T06:33:53;99540.75;;;23.21;68.31
2675;BME280;1347;42.122;24.746;2023-05-25T06:36:19;99538.94;;;23.49;67.75
2675;BME280;1347;42.122;24.746;2023-05-25T06:38:46;99539.56;;;23.75;66.57
2675;BME280;1347;42.122;24.746;2023-05-25T06:41:13;99536.97;;;23.80;64.75
2675;BME280;1347;42.122;24.746;2023-05-25T06:43:40;99530.81;;;24.04;63.81
2675;BME280;1347;42.122;24.746;2023-05-25T06:46:09;99524.72;;;23.96;64.05
2675;BME280;1347;42.122;24.746;2023-05-25T06:48:38;99520.34;;;24.26;64.17
2675;BME280;1347;42.122;24.746;2023-05-25T06:51:04;99522.75;;;24.46;63.47
2675;BME280;1347;42.122;24.746;2023-05-25T06:53:31;99525.88;;;24.66;63.30
2675;BME280;1347;42.122;24.746;2023-05-25T06:55:58;99521.72;;;24.89;62.32
2675;BME280;1347;42.122;24.746;2023-05-25T06:58:25;99524.97;;;24.87;61.84
2675;BME280;1347;42.122;24.746;2023-05-25T07:00:52;99517.22;;;25.01;62.10
2675;BME280;1347;42.122;24.746;2023-05-25T07:03:20;99512.81;;;25.27;62.41
2675;BME280;1347;42.122;24.746;2023-05-25T07:05:47;99515.66;;;25.18;59.70
2675;BME280;1347;42.122;24.746;2023-05-25T07:08:14;99513.59;;;25.27;60.27
2675;BME280;1347;42.122;24.746;2023-05-25T07:10:41;99515.75;;;25.60;58.81
2675;BME280;1347;42.122;24.746;2023-05-25T07:13:08;99508.28;;;25.99;57.06
2675;BME280;1347;42.122;24.746;2023-05-25T07:15:35;99519.25;;;26.30;56.00
2675;BME280;1347;42.122;24.746;2023-05-25T07:18:02;99522.59;;;26.43;55.76
2675;BME280;1347;42.122;24.746;2023-05-25T07:20:31;99525.59;;;26.63;54.34
2675;BME280;1347;42.122;24.746;2023-05-25T07:22:58;99521.56;;;27.03;54.78
2675;BME280;1347;42.122;24.746;2023-05-25T07:25:25;99520.94;;;27.23;53.56
2675;BME280;1347;42.122;24.746;2023-05-25T07:27:52;99517.56;;;27.63;52.42
2675;BME280;1347;42.122;24.746;2023-05-25T07:30:22;99519.03;;;27.88;52.18
2675;BME280;1347;42.122;24.746;2023-05-25T07:32:49;99511.59;;;28.05;51.64
2675;BME280;1347;42.122;24.746;2023-05-25T07:35:15;99515.16;;;28.20;51.43
2675;BME280;1347;42.122;24.746;2023-05-25T07:37:44;99507.63;;;28.46;49.95
2675;BME280;1347;42.122;24.746;2023-05-25T07:40:11;99511.34;;;28.38;49.58
2675;BME280;1347;42.122;24.746;2023-05-25T07:42:38;99515.44;;;28.57;48.37
2675;BME280;1347;42.122;24.746;2023-05-25T07:45:06;99514.13;;;28.93;48.98
2675;BME280;1347;42.122;24.746;2023-05-25T07:47:33;99518.19;;;29.12;47.10
2675;BME280;1347;42.122;24.746;2023-05-25T07:49:59;99522.91;;;29.41;46.86
2675;BME280;1347;42.122;24.746;2023-05-25T07:52:27;99521.09;;;29.70;45.58
2675;BME280;1347;42.122;24.746;2023-05-25T07:54:55;99522.19;;;30.09;43.93
2675;BME280;1347;42.122;24.746;2023-05-25T07:57:22;99508.84;;;29.84;43.33
2675;BME280;1347;42.122;24.746;2023-05-25T07:59:49;99519.41;;;30.15;42.57
2675;BME280;1347;42.122;24.746;2023-05-25T08:02:18;99515.16;;;30.36;43.14
2675;BME280;1347;42.122;24.746;2023-05-25T08:04:49;99515.22;;;30.42;41.98
2675;BME280;1347;42.122;24.746;2023-05-25T08:07:18;99520.19;;;30.52;42.15
2675;BME280;1347;42.122;24.746;2023-05-25T08:09:45;99515.22;;;30.42;42.58
2675;BME280;1347;42.122;24.746;2023-05-25T08:12:14;99522.03;;;30.24;43.64
2675;BME280;1347;42.122;24.746;2023-05-25T08:14:41;99518.31;;;30.07;43.88
2675;BME280;1347;42.122;24.746;2023-05-25T08:17:08;99513.22;;;29.79;43.72
2675;BME280;1347;42.122;24.746;2023-05-25T08:19:34;99513.19;;;29.48;44.25
2675;BME280;1347;42.122;24.746;2023-05-25T08:22:01;99521.72;;;29.33;44.09
2675;BME280;1347;42.122;24.746;2023-05-25T08:24:28;99518.31;;;29.23;45.29
2675;BME280;1347;42.122;24.746;2023-05-25T08:26:55;99507.06;;;29.29;45.27
2675;BME280;1347;42.122;24.746;2023-05-25T08:29:24;99513.19;;;29.48;45.55
2675;BME280;1347;42.122;24.746;2023-05-25T08:31:50;99513.78;;;29.57;44.97
2675;BME280;1347;42.122;24.746;2023-05-25T08:34:17;99507.50;;;29.74;45.50
2675;BME280;1347;42.122;24.746;2023-05-25T08:36:44;99512.63;;;30.01;44.58
2675;BME280;1347;42.122;24.746;2023-05-25T08:39:11;99509.84;;;30.07;43.89
2675;BME280;1347;42.122;24.746;2023-05-25T08:41:40;99505.06;;;30.24;44.31
2675;BME280;1347;42.122;24.746;2023-05-25T08:44:07;99510.06;;;30.46;43.42
2675;BME280;1347;42.122;24.746;2023-05-25T08:46:36;99502.03;;;30.81;42.65
2675;BME280;1347;42.122;24.746;2023-05-25T08:49:06;99511.69;;;31.17;43.26
2675;BME280;1347;42.122;24.746;2023-05-25T08:51:36;99506.63;;;31.71;41.73
2675;BME280;1347;42.122;24.746;2023-05-25T08:54:06;99499.88;;;32.30;41.05
2675;BME280;1347;42.122;24.746;2023-05-25T08:56:37;99503.59;;;32.83;40.50
2675;BME280;1347;42.122;24.746;2023-05-25T08:59:11;99499.66;;;32.06;40.64
2675;BME280;1347;42.122;24.746;2023-05-25T09:01:46;99506.09;;;31.67;40.57
2675;BME280;1347;42.122;24.746;2023-05-25T09:04:16;99507.59;;;31.46;40.90
2675;BME280;1347;42.122;24.746;2023-05-25T09:06:44;99508.44;;;31.74;40.17
2675;BME280;1347;42.122;24.746;2023-05-25T09:09:12;99501.47;;;31.87;40.37
2675;BME280;1347;42.122;24.746;2023-05-25T09:11:40;99494.72;;;32.34;39.95
2675;BME280;1347;42.122;24.746;2023-05-25T09:14:07;99499.41;;;32.95;39.56
2675;BME280;1347;42.122;24.746;2023-05-25T09:16:36;99491.00;;;33.19;38.35
2675;BME280;1347;42.122;24.746;2023-05-25T09:19:04;99490.69;;;33.64;37.33
2675;BME280;1347;42.122;24.746;2023-05-25T09:21:31;99479.81;;;33.68;36.49
2675;BME280;1347;42.122;24.746;2023-05-25T09:23:58;99481.75;;;33.84;37.09
2675;BME280;1347;42.122;24.746;2023-05-25T09:26:26;99475.53;;;34.40;35.44
2675;BME280;1347;42.122;24.746;2023-05-25T09:28:52;99484.94;;;34.72;35.13
2675;BME280;1347;42.122;24.746;2023-05-25T09:31:22;99483.53;;;34.85;35.02
2675;BME280;1347;42.122;24.746;2023-05-25T09:33:50;99482.06;;;35.34;35.73
2675;BME280;1347;42.122;24.746;2023-05-25T09:36:21;99481.25;;;35.53;34.59
2675;BME280;1347;42.122;24.746;2023-05-25T09:38:48;99470.59;;;35.53;33.77
2675;BME280;1347;42.122;24.746;2023-05-25T09:41:15;99473.03;;;35.81;33.75
2675;BME280;1347;42.122;24.746;2023-05-25T09:43:43;99474.91;;;35.92;34.05
2675;BME280;1347;42.122;24.746;2023-05-25T09:46:10;99468.47;;;36.18;32.50
2675;BME280;1347;42.122;24.746;2023-05-25T09:48:37;99466.19;;;36.29;32.77
2675;BME280;1347;42.122;24.746;2023-05-25T09:51:05;99463.22;;;36.22;31.99
2675;BME280;1347;42.122;24.746;2023-05-25T09:53:34;99453.53;;;36.11;31.71
2675;BME280;1347;42.122;24.746;2023-05-25T09:56:02;99451.22;;;35.33;32.29
2675;BME280;1347;42.122;24.746;2023-05-25T09:58:29;99450.03;;;35.10;32.67
2675;BME280;1347;42.122;24.746;2023-05-25T10:00:56;99434.59;;;34.43;33.35
2675;BME280;1347;42.122;24.746;2023-05-25T10:03:23;99439.28;;;34.41;34.86
2675;BME280;1347;42.122;24.746;2023-05-25T10:05:50;99443.53;;;33.80;34.82
2675;BME280;1347;42.122;24.746;2023-05-25T10:08:19;99432.84;;;32.85;34.85
2675;BME280;1347;42.122;24.746;2023-05-25T10:10:49;99434.06;;;32.37;35.42
2675;BME280;1347;42.122;24.746;2023-05-25T10:13:19;99429.25;;;32.15;35.84
2675;BME280;1347;42.122;24.746;2023-05-25T10:15:47;99424.69;;;31.85;36.87
2675;BME280;1347;42.122;24.746;2023-05-25T10:18:22;99425.69;;;31.48;37.23
2675;BME280;1347;42.122;24.746;2023-05-25T10:20:53;99429.31;;;31.21;37.38
2675;BME280;1347;42.122;24.746;2023-05-25T10:23:23;99423.63;;;31.15;37.42
2675;BME280;1347;42.122;24.746;2023-05-25T10:25:58;99429.50;;;30.84;37.33
2675;BME280;1347;42.122;24.746;2023-05-25T10:28:27;99424.97;;;30.49;37.83
2675;BME280;1347;42.122;24.746;2023-05-25T10:30:58;99434.06;;;30.16;38.90
2675;BME280;1347;42.122;24.746;2023-05-25T10:33:28;99439.06;;;30.44;38.88
2675;BME280;1347;42.122;24.746;2023-05-25T10:35:55;99448.50;;;30.72;40.08
2675;BME280;1347;42.122;24.746;2023-05-25T10:38:24;99447.69;;;30.60;39.14
2675;BME280;1347;42.122;24.746;2023-05-25T10:40:57;99456.47;;;30.73;40.11
2675;BME280;1347;42.122;24.746;2023-05-25T10:43:25;99440.75;;;30.61;39.33
2675;BME280;1347;42.122;24.746;2023-05-25T10:45:53;99431.19;;;30.53;40.03
2675;BME280;1347;42.122;24.746;2023-05-25T10:48:21;99428.91;;;30.74;40.33
2675;BME280;1347;42.122;24.746;2023-05-25T10:50:49;99423.38;;;30.37;38.90
2675;BME280;1347;42.122;24.746;2023-05-25T10:53:19;99430.44;;;29.73;40.09
2675;BME280;1347;42.122;24.746;2023-05-25T10:55:49;99428.75;;;29.55;40.75
2675;BME280;1347;42.122;24.746;2023-05-25T10:58:32;99432.38;;;29.04;41.04
2675;BME280;1347;42.122;24.746;2023-05-25T11:01:09;99428.19;;;28.94;41.34
2675;BME280;1347;42.122;24.746;2023-05-25T11:03:56;99427.28;;;28.82;41.70
2675;BME280;1347;42.122;24.746;2023-05-25T11:09:29;99423.94;;;28.58;41.15
2675;BME280;1347;42.122;24.746;2023-05-25T11:12:00;99422.94;;;28.41;41.65
2675;BME280;1347;42.122;24.746;2023-05-25T11:14:31;99423.53;;;28.10;42.23
2675;BME280;1347;42.122;24.746;2023-05-25T11:17:05;99434.69;;;27.84;44.01
2675;BME280;1347;42.122;24.746;2023-05-25T11:19:38;99434.81;;;27.75;45.92
2675;BME280;1347;42.122;24.746;2023-05-25T11:22:13;99436.75;;;27.69;46.43
2675;BME280;1347;42.122;24.746;2023-05-25T11:24:42;99437.56;;;27.55;46.88
2675;BME280;1347;42.122;24.746;2023-05-25T11:27:10;99428.25;;;27.34;47.55
2675;BME280;1347;42.122;24.746;2023-05-25T11:29:39;99436.09;;;27.30;47.39
2675;BME280;1347;42.122;24.746;2023-05-25T11:32:11;99433.97;;;27.25;47.17
2675;BME280;1347;42.122;24.746;2023-05-25T11:34:39;99435.22;;;27.24;49.52
2675;BME280;1347;42.122;24.746;2023-05-25T11:37:11;99440.75;;;27.18;52.12
2675;BME280;1347;42.122;24.746;2023-05-25T11:39:40;99436.28;;;27.11;53.23
2675;BME280;1347;42.122;24.746;2023-05-25T11:42:08;99437.63;;;26.87;54.85
2675;BME280;1347;42.122;24.746;2023-05-25T11:44:35;99434.72;;;26.57;55.36
2675;BME280;1347;42.122;24.746;2023-05-25T11:47:06;99440.41;;;26.48;56.18
